sensor_id;sensor_type;location;lat;lon;timestamp;P1;durP1;ratioP1;P2;durP2;ratioP2
12474;SDS011;6302;42.624;23.334;2023-06-10T00:01:38;5.97;;;5.37;;
12474;SDS011;6302;42.624;23.334;2023-06-10T00:04:05;9.47;;;5.80;;
12474;SDS011;6302;42.624;23.334;2023-06-10T00:06:32;6.37;;;5.73;;
12474;SDS011;6302;42.624;23.334;2023-06-10T00:09:01;6.10;;;5.50;;
12474;SDS011;6302;42.624;23.334;2023-06-10T00:11:30;6.37;;;5.77;;
12474;SDS011;6302;42.624;23.334;2023-06-10T00:13:59;7.97;;;6.17;;
12474;SDS011;6302;42.624;23.334;2023-06-10T00:16:26;8.33;;;7.43;;
12474;SDS011;6302;42.624;23.334;2023-06-10T00:18:53;8.47;;;7.20;;
12474;SDS011;6302;42.624;23.334;2023-06-10T00:21:26;9.17;;;7.53;;
12474;SDS011;6302;42.624;23.334;2023-06-10T00:23:53;8.00;;;7.27;;
12474;SDS011;6302;42.624;23.334;2023-06-10T00:26:20;9.40;;;8.50;;
12474;SDS011;6302;42.624;23.334;2023-06-10T00:28:47;7.73;;;6.93;;
12474;SDS011;6302;42.624;23.334;2023-06-10T00:31:16;9.17;;;7.43;;
12474;SDS011;6302;42.624;23.334;2023-06-10T00:33:42;7.97;;;7.27;;
12474;SDS011;6302;42.624;23.334;2023-06-10T00:36:09;9.43;;;8.43;;
12474;SDS011;6302;42.624;23.334;2023-06-10T00:38:36;7.83;;;7.10;;
12474;SDS011;6302;42.624;23.334;2023-06-10T00:41:03;10.23;;;7.57;;
12474;SDS011;6302;42.624;23.334;2023-06-10T00:43:30;9.53;;;8.20;;
12474;SDS011;6302;42.624;23.334;2023-06-10T00:45:57;10.07;;;7.67;;
12474;SDS011;6302;42.624;23.334;2023-06-10T00:48:25;9.03;;;8.00;;
12474;SDS011;6302;42.624;23.334;2023-06-10T00:50:52;10.13;;;8.47;;
12474;SDS011;6302;42.624;23.334;2023-06-10T00:53:19;9.20;;;8.30;;
12474;SDS011;6302;42.624;23.334;2023-06-10T00:55:47;9.23;;;8.33;;
12474;SDS011;6302;42.624;23.334;2023-06-10T00:58:14;12.80;;;10.03;;
12474;SDS011;6302;42.624;23.334;2023-06-10T01:00:41;11.13;;;9.40;;
12474;SDS011;6302;42.624;23.334;2023-06-10T01:03:10;9.90;;;8.90;;
12474;SDS011;6302;42.624;23.334;2023-06-10T01:05:38;11.10;;;9.67;;
12474;SDS011;6302;42.624;23.334;2023-06-10T01:08:09;10.83;;;9.73;;
12474;SDS011;6302;42.624;23.334;2023-06-10T01:10:41;11.20;;;10.13;;
12474;SDS011;6302;42.624;23.334;2023-06-10T01:13:13;11.37;;;10.20;;
12474;SDS011;6302;42.624;23.334;2023-06-10T01:15:41;12.10;;;10.70;;
12474;SDS011;6302;42.624;23.334;2023-06-10T01:18:09;11.30;;;10.10;;
12474;SDS011;6302;42.624;23.334;2023-06-10T01:20:41;11.60;;;10.47;;
12474;SDS011;6302;42.624;23.334;2023-06-10T01:23:10;11.53;;;9.63;;
12474;SDS011;6302;42.624;23.334;2023-06-10T01:25:38;9.67;;;8.67;;
12474;SDS011;6302;42.624;23.334;2023-06-10T01:28:10;10.10;;;8.10;;
12474;SDS011;6302;42.624;23.334;2023-06-10T01:30:41;14.33;;;8.97;;
12474;SDS011;6302;42.624;23.334;2023-06-10T01:33:12;9.67;;;7.47;;
12474;SDS011;6302;42.624;23.334;2023-06-10T01:35:45;9.33;;;8.43;;
12474;SDS011;6302;42.624;23.334;2023-06-10T01:38:15;9.90;;;8.90;;
12474;SDS011;6302;42.624;23.334;2023-06-10T01:40:45;10.90;;;8.83;;
12474;SDS011;6302;42.624;23.334;2023-06-10T01:43:12;11.37;;;10.13;;
12474;SDS011;6302;42.624;23.334;2023-06-10T01:45:39;11.17;;;10.00;;
12474;SDS011;6302;42.624;23.334;2023-06-10T01:48:06;10.97;;;9.27;;
12474;SDS011;6302;42.624;23.334;2023-06-10T01:50:33;11.17;;;9.30;;
12474;SDS011;6302;42.624;23.334;2023-06-10T01:52:59;12.73;;;8.87;;
12474;SDS011;6302;42.624;23.334;2023-06-10T01:55:28;11.03;;;8.90;;
12474;SDS011;6302;42.624;23.334;2023-06-10T01:57:54;9.63;;;8.03;;
12474;SDS011;6302;42.624;23.334;2023-06-10T02:00:21;11.10;;;8.77;;
12474;SDS011;6302;42.624;23.334;2023-06-10T02:02:48;9.27;;;8.37;;
12474;SDS011;6302;42.624;23.334;2023-06-10T02:05:15;10.33;;;7.90;;
12474;SDS011;6302;42.624;23.334;2023-06-10T02:07:42;9.90;;;8.83;;
12474;SDS011;6302;42.624;23.334;2023-06-10T02:10:08;10.03;;;9.03;;
12474;SDS011;6302;42.624;23.334;2023-06-10T02:12:37;10.20;;;8.10;;
12474;SDS011;6302;42.624;23.334;2023-06-10T02:15:04;8.87;;;7.97;;
12474;SDS011;6302;42.624;23.334;2023-06-10T02:17:31;9.83;;;8.93;;
12474;SDS011;6302;42.624;23.334;2023-06-10T02:19:58;9.23;;;7.03;;
12474;SDS011;6302;42.624;23.334;2023-06-10T02:22:31;8.53;;;7.57;;
12474;SDS011;6302;42.624;23.334;2023-06-10T02:24:58;8.77;;;6.73;;
12474;SDS011;6302;42.624;23.334;2023-06-10T02:27:25;7.63;;;6.93;;
12474;SDS011;6302;42.624;23.334;2023-06-10T02:29:53;8.80;;;7.07;;
12474;SDS011;6302;42.624;23.334;2023-06-10T02:32:20;7.77;;;6.47;;
12474;SDS011;6302;42.624;23.334;2023-06-10T02:34:47;6.83;;;6.13;;
12474;SDS011;6302;42.624;23.334;2023-06-10T02:37:14;7.33;;;6.63;;
12474;SDS011;6302;42.624;23.334;2023-06-10T02:39:41;10.73;;;6.13;;
12474;SDS011;6302;42.624;23.334;2023-06-10T02:42:08;7.33;;;6.67;;
12474;SDS011;6302;42.624;23.334;2023-06-10T02:44:35;7.47;;;6.77;;
12474;SDS011;6302;42.624;23.334;2023-06-10T02:47:03;6.63;;;5.87;;
12474;SDS011;6302;42.624;23.334;2023-06-10T02:49:30;7.50;;;6.80;;
12474;SDS011;6302;42.624;23.334;2023-06-10T02:51:57;6.83;;;5.73;;
12474;SDS011;6302;42.624;23.334;2023-06-10T02:54:24;6.20;;;5.60;;
12474;SDS011;6302;42.624;23.334;2023-06-10T02:56:51;6.43;;;5.37;;
12474;SDS011;6302;42.624;23.334;2023-06-10T02:59:20;6.03;;;5.43;;
12474;SDS011;6302;42.624;23.334;2023-06-10T03:01:47;6.00;;;5.50;;
12474;SDS011;6302;42.624;23.334;2023-06-10T03:04:15;6.77;;;6.07;;
12474;SDS011;6302;42.624;23.334;2023-06-10T03:06:43;5.70;;;5.10;;
12474;SDS011;6302;42.624;23.334;2023-06-10T03:09:10;5.63;;;5.10;;
12474;SDS011;6302;42.624;23.334;2023-06-10T03:11:37;5.87;;;4.97;;
12474;SDS011;6302;42.624;23.334;2023-06-10T03:14:04;5.30;;;4.80;;
12474;SDS011;6302;42.624;23.334;2023-06-10T03:16:31;5.00;;;4.50;;
12474;SDS011;6302;42.624;23.334;2023-06-10T03:18:58;5.40;;;5.00;;
12474;SDS011;6302;42.624;23.334;2023-06-10T03:21:26;5.80;;;5.20;;
12474;SDS011;6302;42.624;23.334;2023-06-10T03:23:53;4.90;;;4.40;;
12474;SDS011;6302;42.624;23.334;2023-06-10T03:26:20;6.30;;;5.20;;
12474;SDS011;6302;42.624;23.334;2023-06-10T03:28:47;6.13;;;4.77;;
12474;SDS011;6302;42.624;23.334;2023-06-10T03:31:14;5.33;;;4.80;;
12474;SDS011;6302;42.624;23.334;2023-06-10T03:33:41;5.93;;;4.93;;
12474;SDS011;6302;42.624;23.334;2023-06-10T03:36:08;7.20;;;4.60;;
12474;SDS011;6302;42.624;23.334;2023-06-10T03:38:37;5.20;;;4.43;;
12474;SDS011;6302;42.624;23.334;2023-06-10T03:41:03;5.20;;;4.70;;
12474;SDS011;6302;42.624;23.334;2023-06-10T03:43:30;5.37;;;4.87;;
12474;SDS011;6302;42.624;23.334;2023-06-10T03:45:57;7.93;;;5.20;;
12474;SDS011;6302;42.624;23.334;2023-06-10T03:48:24;5.70;;;5.03;;
12474;SDS011;6302;42.624;23.334;2023-06-10T03:50:51;6.87;;;6.17;;
12474;SDS011;6302;42.624;23.334;2023-06-10T03:53:17;6.63;;;5.30;;
12474;SDS011;6302;42.624;23.334;2023-06-10T03:55:45;7.30;;;6.60;;
12474;SDS011;6302;42.624;23.334;2023-06-10T03:58:13;7.33;;;6.63;;
12474;SDS011;6302;42.624;23.334;2023-06-10T04:00:40;7.93;;;7.00;;
12474;SDS011;6302;42.624;23.334;2023-06-10T04:03:07;7.60;;;6.87;;
12474;SDS011;6302;42.624;23.334;2023-06-10T04:05:39;8.03;;;7.27;;
12474;SDS011;6302;42.624;23.334;2023-06-10T04:08:06;7.40;;;6.70;;
12474;SDS011;6302;42.624;23.334;2023-06-10T04:10:33;8.67;;;7.87;;
12474;SDS011;6302;42.624;23.334;2023-06-10T04:13:01;8.50;;;7.47;;
12474;SDS011;6302;42.624;23.334;2023-06-10T04:15:28;8.10;;;7.33;;
12474;SDS011;6302;42.624;23.334;2023-06-10T04:17:57;10.80;;;8.10;;
12474;SDS011;6302;42.624;23.334;2023-06-10T04:20:24;8.47;;;7.43;;
12474;SDS011;6302;42.624;23.334;2023-06-10T04:22:51;10.33;;;7.83;;
12474;SDS011;6302;42.624;23.334;2023-06-10T04:25:18;8.87;;;7.97;;
12474;SDS011;6302;42.624;23.334;2023-06-10T04:27:45;9.20;;;8.30;;
12474;SDS011;6302;42.624;23.334;2023-06-10T04:30:16;9.40;;;8.43;;
12474;SDS011;6302;42.624;23.334;2023-06-10T04:32:47;10.00;;;8.27;;
12474;SDS011;6302;42.624;23.334;2023-06-10T04:35:16;12.60;;;8.70;;
12474;SDS011;6302;42.624;23.334;2023-06-10T04:37:43;9.37;;;8.47;;
12474;SDS011;6302;42.624;23.334;2023-06-10T04:40:10;11.13;;;10.03;;
12474;SDS011;6302;42.624;23.334;2023-06-10T04:42:37;11.40;;;10.20;;
12474;SDS011;6302;42.624;23.334;2023-06-10T04:45:04;11.90;;;10.33;;
12474;SDS011;6302;42.624;23.334;2023-06-10T04:47:33;11.63;;;10.40;;
12474;SDS011;6302;42.624;23.334;2023-06-10T04:50:00;12.30;;;11.10;;
12474;SDS011;6302;42.624;23.334;2023-06-10T04:52:28;12.00;;;10.90;;
12474;SDS011;6302;42.624;23.334;2023-06-10T04:54:54;11.20;;;10.10;;
12474;SDS011;6302;42.624;23.334;2023-06-10T04:57:23;12.40;;;11.10;;
12474;SDS011;6302;42.624;23.334;2023-06-10T04:59:51;17.03;;;13.33;;
12474;SDS011;6302;42.624;23.334;2023-06-10T05:02:18;18.70;;;15.07;;
12474;SDS011;6302;42.624;23.334;2023-06-10T05:04:46;18.10;;;15.87;;
12474;SDS011;6302;42.624;23.334;2023-06-10T05:07:13;22.17;;;16.60;;
12474;SDS011;6302;42.624;23.334;2023-06-10T05:09:40;17.50;;;13.90;;
12474;SDS011;6302;42.624;23.334;2023-06-10T05:12:07;16.17;;;13.73;;
12474;SDS011;6302;42.624;23.334;2023-06-10T05:14:37;14.90;;;13.33;;
12474;SDS011;6302;42.624;23.334;2023-06-10T05:17:05;15.10;;;13.53;;
12474;SDS011;6302;42.624;23.334;2023-06-10T05:19:32;14.93;;;12.87;;
12474;SDS011;6302;42.624;23.334;2023-06-10T05:22:02;14.37;;;12.30;;
12474;SDS011;6302;42.624;23.334;2023-06-10T05:24:29;15.00;;;13.43;;
12474;SDS011;6302;42.624;23.334;2023-06-10T05:26:56;14.73;;;12.80;;
12474;SDS011;6302;42.624;23.334;2023-06-10T05:29:22;15.43;;;13.37;;
12474;SDS011;6302;42.624;23.334;2023-06-10T05:31:49;14.80;;;12.50;;
12474;SDS011;6302;42.624;23.334;2023-06-10T05:34:16;13.87;;;11.90;;
12474;SDS011;6302;42.624;23.334;2023-06-10T05:36:43;15.70;;;12.07;;
12474;SDS011;6302;42.624;23.334;2023-06-10T05:39:11;13.77;;;12.37;;
12474;SDS011;6302;42.624;23.334;2023-06-10T05:41:38;15.53;;;13.33;;
12474;SDS011;6302;42.624;23.334;2023-06-10T05:44:05;15.93;;;13.50;;
12474;SDS011;6302;42.624;23.334;2023-06-10T05:46:31;14.33;;;12.93;;
12474;SDS011;6302;42.624;23.334;2023-06-10T05:48:58;15.80;;;13.80;;
12474;SDS011;6302;42.624;23.334;2023-06-10T05:51:25;15.60;;;14.00;;
12474;SDS011;6302;42.624;23.334;2023-06-10T05:53:53;16.70;;;14.60;;
12474;SDS011;6302;42.624;23.334;2023-06-10T05:56:21;17.37;;;15.40;;
12474;SDS011;6302;42.624;23.334;2023-06-10T05:58:48;17.07;;;14.70;;
12474;SDS011;6302;42.624;23.334;2023-06-10T06:01:15;16.50;;;13.80;;
12474;SDS011;6302;42.624;23.334;2023-06-10T06:03:42;16.00;;;14.30;;
12474;SDS011;6302;42.624;23.334;2023-06-10T06:06:09;15.03;;;13.40;;
12474;SDS011;6302;42.624;23.334;2023-06-10T06:08:35;14.30;;;12.97;;
12474;SDS011;6302;42.624;23.334;2023-06-10T06:11:02;13.33;;;11.83;;
12474;SDS011;6302;42.624;23.334;2023-06-10T06:13:30;12.83;;;11.43;;
12474;SDS011;6302;42.624;23.334;2023-06-10T06:15:57;16.00;;;11.90;;
12474;SDS011;6302;42.624;23.334;2023-06-10T06:18:24;11.97;;;10.73;;
12474;SDS011;6302;42.624;23.334;2023-06-10T06:20:51;11.63;;;10.43;;
12474;SDS011;6302;42.624;23.334;2023-06-10T06:23:17;15.27;;;11.83;;
12474;SDS011;6302;42.624;23.334;2023-06-10T06:25:44;12.33;;;10.30;;
12474;SDS011;6302;42.624;23.334;2023-06-10T06:28:11;13.33;;;11.87;;
12474;SDS011;6302;42.624;23.334;2023-06-10T06:30:39;12.60;;;11.40;;
12474;SDS011;6302;42.624;23.334;2023-06-10T06:33:06;12.53;;;11.30;;
12474;SDS011;6302;42.624;23.334;2023-06-10T06:35:33;13.67;;;11.53;;
12474;SDS011;6302;42.624;23.334;2023-06-10T06:38:00;12.97;;;11.53;;
12474;SDS011;6302;42.624;23.334;2023-06-10T06:40:27;13.50;;;12.13;;
12474;SDS011;6302;42.624;23.334;2023-06-10T06:42:53;12.53;;;11.33;;
12474;SDS011;6302;42.624;23.334;2023-06-10T06:45:20;13.07;;;11.67;;
12474;SDS011;6302;42.624;23.334;2023-06-10T06:47:48;15.20;;;11.70;;
12474;SDS011;6302;42.624;23.334;2023-06-10T06:50:16;13.10;;;11.80;;
12474;SDS011;6302;42.624;23.334;2023-06-10T06:52:43;18.23;;;12.83;;
12474;SDS011;6302;42.624;23.334;2023-06-10T06:55:10;14.87;;;12.90;;
12474;SDS011;6302;42.624;23.334;2023-06-10T06:57:37;14.80;;;13.10;;
12474;SDS011;6302;42.624;23.334;2023-06-10T07:00:05;13.43;;;12.07;;
12474;SDS011;6302;42.624;23.334;2023-06-10T07:02:34;13.27;;;11.93;;
12474;SDS011;6302;42.624;23.334;2023-06-10T07:05:02;14.40;;;12.17;;
12474;SDS011;6302;42.624;23.334;2023-06-10T07:07:30;16.33;;;13.07;;
12474;SDS011;6302;42.624;23.334;2023-06-10T07:09:57;14.10;;;11.17;;
12474;SDS011;6302;42.624;23.334;2023-06-10T07:12:24;15.17;;;12.00;;
12474;SDS011;6302;42.624;23.334;2023-06-10T07:14:50;11.23;;;10.10;;
12474;SDS011;6302;42.624;23.334;2023-06-10T07:17:17;10.20;;;9.20;;
12474;SDS011;6302;42.624;23.334;2023-06-10T07:19:44;14.97;;;10.03;;
12474;SDS011;6302;42.624;23.334;2023-06-10T07:22:12;8.80;;;7.90;;
12474;SDS011;6302;42.624;23.334;2023-06-10T07:24:40;6.33;;;5.67;;
12474;SDS011;6302;42.624;23.334;2023-06-10T07:27:07;6.63;;;5.97;;
12474;SDS011;6302;42.624;23.334;2023-06-10T07:29:34;8.03;;;6.87;;
12474;SDS011;6302;42.624;23.334;2023-06-10T07:32:01;7.77;;;6.83;;
12474;SDS011;6302;42.624;23.334;2023-06-10T07:34:28;9.57;;;8.25;;
12474;SDS011;6302;42.624;23.334;2023-06-10T07:36:55;9.23;;;8.32;;
12474;SDS011;6302;42.624;23.334;2023-06-10T07:39:23;11.90;;;8.07;;
12474;SDS011;6302;42.624;23.334;2023-06-10T07:41:50;8.15;;;7.30;;
12474;SDS011;6302;42.624;23.334;2023-06-10T07:44:19;9.30;;;7.85;;
12474;SDS011;6302;42.624;23.334;2023-06-10T07:46:46;10.63;;;7.68;;
12474;SDS011;6302;42.624;23.334;2023-06-10T07:49:13;7.83;;;6.93;;
12474;SDS011;6302;42.624;23.334;2023-06-10T07:51:40;7.50;;;5.93;;
12474;SDS011;6302;42.624;23.334;2023-06-10T07:54:06;8.83;;;6.87;;
12474;SDS011;6302;42.624;23.334;2023-06-10T07:56:35;8.37;;;6.53;;
12474;SDS011;6302;42.624;23.334;2023-06-10T07:59:01;12.07;;;6.60;;
12474;SDS011;6302;42.624;23.334;2023-06-10T08:01:28;9.17;;;6.10;;
12474;SDS011;6302;42.624;23.334;2023-06-10T08:03:56;8.20;;;5.80;;
12474;SDS011;6302;42.624;23.334;2023-06-10T08:06:23;9.00;;;5.83;;
12474;SDS011;6302;42.624;23.334;2023-06-10T08:08:49;10.73;;;5.47;;
12474;SDS011;6302;42.624;23.334;2023-06-10T08:11:16;7.10;;;4.97;;
12474;SDS011;6302;42.624;23.334;2023-06-10T08:13:44;5.90;;;4.97;;
12474;SDS011;6302;42.624;23.334;2023-06-10T08:16:11;5.90;;;5.20;;
12474;SDS011;6302;42.624;23.334;2023-06-10T08:18:38;8.43;;;5.10;;
12474;SDS011;6302;42.624;23.334;2023-06-10T08:21:05;4.85;;;4.32;;
12474;SDS011;6302;42.624;23.334;2023-06-10T08:23:31;6.43;;;4.70;;
12474;SDS011;6302;42.624;23.334;2023-06-10T08:25:58;4.28;;;3.88;;
12474;SDS011;6302;42.624;23.334;2023-06-10T08:28:25;5.83;;;3.63;;
12474;SDS011;6302;42.624;23.334;2023-06-10T08:30:53;6.45;;;3.80;;
12474;SDS011;6302;42.624;23.334;2023-06-10T08:33:20;4.03;;;3.30;;
12474;SDS011;6302;42.624;23.334;2023-06-10T08:35:47;4.50;;;3.30;;
12474;SDS011;6302;42.624;23.334;2023-06-10T08:38:13;5.10;;;3.93;;
12474;SDS011;6302;42.624;23.334;2023-06-10T08:40:41;4.78;;;3.67;;
12474;SDS011;6302;42.624;23.334;2023-06-10T08:43:08;4.72;;;4.13;;
12474;SDS011;6302;42.624;23.334;2023-06-10T08:45:42;4.82;;;3.47;;
12474;SDS011;6302;42.624;23.334;2023-06-10T08:48:12;3.92;;;3.60;;
12474;SDS011;6302;42.624;23.334;2023-06-10T08:50:43;4.38;;;3.15;;
12474;SDS011;6302;42.624;23.334;2023-06-10T08:53:10;4.15;;;3.35;;
12474;SDS011;6302;42.624;23.334;2023-06-10T08:55:43;3.13;;;2.83;;
12474;SDS011;6302;42.624;23.334;2023-06-10T08:58:14;5.50;;;2.93;;
12474;SDS011;6302;42.624;23.334;2023-06-10T09:00:41;5.10;;;3.10;;
12474;SDS011;6302;42.624;23.334;2023-06-10T09:03:09;3.90;;;3.50;;
12474;SDS011;6302;42.624;23.334;2023-06-10T09:05:37;6.53;;;4.18;;
12474;SDS011;6302;42.624;23.334;2023-06-10T09:08:05;3.22;;;2.67;;
12474;SDS011;6302;42.624;23.334;2023-06-10T09:10:34;3.72;;;2.60;;
12474;SDS011;6302;42.624;23.334;2023-06-10T09:13:01;5.70;;;3.30;;
12474;SDS011;6302;42.624;23.334;2023-06-10T09:15:28;3.70;;;2.75;;
12474;SDS011;6302;42.624;23.334;2023-06-10T09:17:55;3.53;;;2.80;;
12474;SDS011;6302;42.624;23.334;2023-06-10T09:20:22;3.50;;;2.85;;
12474;SDS011;6302;42.624;23.334;2023-06-10T09:22:50;4.43;;;3.42;;
12474;SDS011;6302;42.624;23.334;2023-06-10T09:25:17;4.63;;;3.63;;
12474;SDS011;6302;42.624;23.334;2023-06-10T09:27:44;3.65;;;3.35;;
12474;SDS011;6302;42.624;23.334;2023-06-10T09:30:23;4.65;;;4.03;;
12474;SDS011;6302;42.624;23.334;2023-06-10T09:32:52;4.10;;;3.50;;
12474;SDS011;6302;42.624;23.334;2023-06-10T09:35:21;4.43;;;4.03;;
12474;SDS011;6302;42.624;23.334;2023-06-10T09:37:51;5.05;;;3.92;;
12474;SDS011;6302;42.624;23.334;2023-06-10T09:40:18;5.05;;;3.90;;
12474;SDS011;6302;42.624;23.334;2023-06-10T09:42:45;5.63;;;3.60;;
12474;SDS011;6302;42.624;23.334;2023-06-10T09:45:18;4.10;;;3.70;;
12474;SDS011;6302;42.624;23.334;2023-06-10T09:47:45;4.03;;;3.63;;
12474;SDS011;6302;42.624;23.334;2023-06-10T09:50:12;6.22;;;4.03;;
12474;SDS011;6302;42.624;23.334;2023-06-10T09:52:39;4.40;;;3.95;;
12474;SDS011;6302;42.624;23.334;2023-06-10T09:55:08;6.15;;;3.45;;
12474;SDS011;6302;42.624;23.334;2023-06-10T09:57:36;3.97;;;3.13;;
12474;SDS011;6302;42.624;23.334;2023-06-10T10:00:04;4.28;;;3.55;;
12474;SDS011;6302;42.624;23.334;2023-06-10T10:02:33;3.50;;;2.95;;
12474;SDS011;6302;42.624;23.334;2023-06-10T10:05:10;3.03;;;2.78;;
12474;SDS011;6302;42.624;23.334;2023-06-10T10:07:39;3.40;;;3.00;;
12474;SDS011;6302;42.624;23.334;2023-06-10T10:10:08;3.55;;;2.80;;
12474;SDS011;6302;42.624;23.334;2023-06-10T10:12:36;3.22;;;2.70;;
12474;SDS011;6302;42.624;23.334;2023-06-10T10:15:04;2.92;;;2.65;;
12474;SDS011;6302;42.624;23.334;2023-06-10T10:17:34;3.88;;;3.10;;
12474;SDS011;6302;42.624;23.334;2023-06-10T10:20:02;3.35;;;3.05;;
12474;SDS011;6302;42.624;23.334;2023-06-10T10:22:31;3.25;;;2.85;;
12474;SDS011;6302;42.624;23.334;2023-06-10T10:25:05;3.28;;;2.97;;
12474;SDS011;6302;42.624;23.334;2023-06-10T10:27:40;3.25;;;2.50;;
12474;SDS011;6302;42.624;23.334;2023-06-10T10:30:11;3.65;;;3.00;;
12474;SDS011;6302;42.624;23.334;2023-06-10T10:32:43;2.92;;;2.72;;
12474;SDS011;6302;42.624;23.334;2023-06-10T10:35:19;5.13;;;3.08;;
12474;SDS011;6302;42.624;23.334;2023-06-10T10:37:48;3.08;;;2.75;;
12474;SDS011;6302;42.624;23.334;2023-06-10T10:40:16;3.80;;;3.40;;
12474;SDS011;6302;42.624;23.334;2023-06-10T10:42:43;6.15;;;3.20;;
12474;SDS011;6302;42.624;23.334;2023-06-10T10:47:46;3.72;;;3.10;;
12474;SDS011;6302;42.624;23.334;2023-06-10T10:50:19;3.38;;;3.10;;
12474;SDS011;6302;42.624;23.334;2023-06-10T10:52:50;3.35;;;3.05;;
12474;SDS011;6302;42.624;23.334;2023-06-10T10:55:21;3.72;;;3.42;;
12474;SDS011;6302;42.624;23.334;2023-06-10T10:57:55;3.60;;;3.20;;
12474;SDS011;6302;42.624;23.334;2023-06-10T11:00:29;4.00;;;3.60;;
12474;SDS011;6302;42.624;23.334;2023-06-10T11:02:58;3.83;;;3.45;;
12474;SDS011;6302;42.624;23.334;2023-06-10T11:05:37;6.10;;;3.60;;
12474;SDS011;6302;42.624;23.334;2023-06-10T11:08:07;3.65;;;3.35;;
12474;SDS011;6302;42.624;23.334;2023-06-10T11:10:36;3.72;;;3.42;;
12474;SDS011;6302;42.624;23.334;2023-06-10T11:13:07;4.40;;;3.20;;
12474;SDS011;6302;42.624;23.334;2023-06-10T11:15:39;4.20;;;3.28;;
12474;SDS011;6302;42.624;23.334;2023-06-10T11:18:10;3.30;;;3.00;;
12474;SDS011;6302;42.624;23.334;2023-06-10T11:23:39;5.70;;;3.13;;
12474;SDS011;6302;42.624;23.334;2023-06-10T11:26:12;4.43;;;3.00;;
12474;SDS011;6302;42.624;23.334;2023-06-10T11:31:33;3.58;;;3.13;;
12474;SDS011;6302;42.624;23.334;2023-06-10T11:34:10;8.00;;;3.85;;
12474;SDS011;6302;42.624;23.334;2023-06-10T11:36:38;3.88;;;3.47;;
12474;SDS011;6302;42.624;23.334;2023-06-10T11:39:10;4.50;;;3.30;;
12474;SDS011;6302;42.624;23.334;2023-06-10T11:41:39;6.65;;;3.38;;
12474;SDS011;6302;42.624;23.334;2023-06-10T11:44:09;3.72;;;3.38;;
12474;SDS011;6302;42.624;23.334;2023-06-10T11:46:37;3.95;;;3.65;;
12474;SDS011;6302;42.624;23.334;2023-06-10T11:49:05;5.20;;;3.50;;
12474;SDS011;6302;42.624;23.334;2023-06-10T11:51:33;5.18;;;3.70;;
12474;SDS011;6302;42.624;23.334;2023-06-10T11:54:00;3.70;;;3.40;;
12474;SDS011;6302;42.624;23.334;2023-06-10T11:56:28;4.07;;;3.67;;
12474;SDS011;6302;42.624;23.334;2023-06-10T11:58:58;4.38;;;3.45;;
12474;SDS011;6302;42.624;23.334;2023-06-10T12:01:29;3.90;;;2.88;;
12474;SDS011;6302;42.624;23.334;2023-06-10T12:03:58;4.10;;;3.55;;
12474;SDS011;6302;42.624;23.334;2023-06-10T12:06:37;3.20;;;2.90;;
12474;SDS011;6302;42.624;23.334;2023-06-10T12:09:05;6.65;;;3.22;;
12474;SDS011;6302;42.624;23.334;2023-06-10T12:11:33;5.13;;;3.42;;
12474;SDS011;6302;42.624;23.334;2023-06-10T12:14:01;4.15;;;3.50;;
12474;SDS011;6302;42.624;23.334;2023-06-10T12:16:29;5.35;;;3.30;;
12474;SDS011;6302;42.624;23.334;2023-06-10T12:19:00;3.72;;;3.38;;
12474;SDS011;6302;42.624;23.334;2023-06-10T12:21:28;3.40;;;3.10;;
12474;SDS011;6302;42.624;23.334;2023-06-10T12:24:00;3.42;;;3.13;;
12474;SDS011;6302;42.624;23.334;2023-06-10T12:26:37;5.55;;;3.65;;
12474;SDS011;6302;42.624;23.334;2023-06-10T12:29:14;3.65;;;3.20;;
12474;SDS011;6302;42.624;23.334;2023-06-10T12:31:52;3.15;;;2.88;;
12474;SDS011;6302;42.624;23.334;2023-06-10T12:34:20;3.63;;;3.33;;
12474;SDS011;6302;42.624;23.334;2023-06-10T12:36:54;5.85;;;3.30;;
12474;SDS011;6302;42.624;23.334;2023-06-10T12:39:21;4.20;;;3.20;;
12474;SDS011;6302;42.624;23.334;2023-06-10T12:41:48;3.42;;;3.13;;
12474;SDS011;6302;42.624;23.334;2023-06-10T12:44:16;4.10;;;3.13;;
12474;SDS011;6302;42.624;23.334;2023-06-10T12:46:43;5.15;;;3.20;;
12474;SDS011;6302;42.624;23.334;2023-06-10T12:49:18;4.70;;;3.28;;
12474;SDS011;6302;42.624;23.334;2023-06-10T12:51:46;3.47;;;3.17;;
12474;SDS011;6302;42.624;23.334;2023-06-10T12:54:13;5.95;;;3.40;;
12474;SDS011;6302;42.624;23.334;2023-06-10T12:56:43;4.47;;;3.10;;
12474;SDS011;6302;42.624;23.334;2023-06-10T12:59:10;3.58;;;3.28;;
12474;SDS011;6302;42.624;23.334;2023-06-10T13:01:38;4.65;;;3.15;;
12474;SDS011;6302;42.624;23.334;2023-06-10T13:04:05;3.53;;;2.65;;
12474;SDS011;6302;42.624;23.334;2023-06-10T13:06:32;3.97;;;3.22;;
12474;SDS011;6302;42.624;23.334;2023-06-10T13:09:02;3.50;;;3.20;;
12474;SDS011;6302;42.624;23.334;2023-06-10T13:11:30;3.42;;;3.13;;
12474;SDS011;6302;42.624;23.334;2023-06-10T13:13:57;3.53;;;3.20;;
12474;SDS011;6302;42.624;23.334;2023-06-10T13:16:24;3.40;;;3.10;;
12474;SDS011;6302;42.624;23.334;2023-06-10T13:18:53;3.97;;;3.15;;
12474;SDS011;6302;42.624;23.334;2023-06-10T13:21:20;3.78;;;3.08;;
12474;SDS011;6302;42.624;23.334;2023-06-10T13:23:47;3.63;;;3.25;;
12474;SDS011;6302;42.624;23.334;2023-06-10T13:26:14;5.60;;;3.10;;
12474;SDS011;6302;42.624;23.334;2023-06-10T13:28:41;3.80;;;3.47;;
12474;SDS011;6302;42.624;23.334;2023-06-10T13:31:08;3.75;;;3.22;;
12474;SDS011;6302;42.624;23.334;2023-06-10T13:33:35;4.70;;;3.13;;
12474;SDS011;6302;42.624;23.334;2023-06-10T13:36:03;8.30;;;3.08;;
12474;SDS011;6302;42.624;23.334;2023-06-10T13:38:30;7.30;;;3.60;;
12474;SDS011;6302;42.624;23.334;2023-06-10T13:40:57;4.78;;;3.67;;
12474;SDS011;6302;42.624;23.334;2023-06-10T13:43:23;5.55;;;4.18;;
12474;SDS011;6302;42.624;23.334;2023-06-10T13:45:50;6.15;;;3.63;;
12474;SDS011;6302;42.624;23.334;2023-06-10T13:48:17;4.75;;;3.67;;
12474;SDS011;6302;42.624;23.334;2023-06-10T13:50:45;4.90;;;3.60;;
12474;SDS011;6302;42.624;23.334;2023-06-10T13:53:13;3.45;;;3.15;;
12474;SDS011;6302;42.624;23.334;2023-06-10T13:55:40;5.03;;;3.70;;
12474;SDS011;6302;42.624;23.334;2023-06-10T13:58:06;3.67;;;3.38;;
12474;SDS011;6302;42.624;23.334;2023-06-10T14:00:33;3.70;;;3.40;;
12474;SDS011;6302;42.624;23.334;2023-06-10T14:03:00;5.20;;;3.90;;
12474;SDS011;6302;42.624;23.334;2023-06-10T14:05:28;6.90;;;3.77;;
12474;SDS011;6302;42.624;23.334;2023-06-10T14:07:55;4.65;;;4.03;;
12474;SDS011;6302;42.624;23.334;2023-06-10T14:10:24;4.07;;;3.78;;
12474;SDS011;6302;42.624;23.334;2023-06-10T14:12:51;5.10;;;3.78;;
12474;SDS011;6302;42.624;23.334;2023-06-10T14:15:17;6.43;;;4.60;;
12474;SDS011;6302;42.624;23.334;2023-06-10T14:17:44;4.33;;;3.90;;
12474;SDS011;6302;42.624;23.334;2023-06-10T14:20:11;5.97;;;4.13;;
12474;SDS011;6302;42.624;23.334;2023-06-10T14:22:38;4.38;;;4.00;;
12474;SDS011;6302;42.624;23.334;2023-06-10T14:25:05;4.85;;;4.32;;
12474;SDS011;6302;42.624;23.334;2023-06-10T14:27:34;5.25;;;4.22;;
12474;SDS011;6302;42.624;23.334;2023-06-10T14:30:01;5.07;;;3.75;;
12474;SDS011;6302;42.624;23.334;2023-06-10T14:32:29;5.63;;;4.20;;
12474;SDS011;6302;42.624;23.334;2023-06-10T14:34:56;5.22;;;4.30;;
12474;SDS011;6302;42.624;23.334;2023-06-10T14:37:23;5.72;;;4.30;;
12474;SDS011;6302;42.624;23.334;2023-06-10T14:39:49;6.65;;;4.47;;
12474;SDS011;6302;42.624;23.334;2023-06-10T14:42:16;5.68;;;4.00;;
12474;SDS011;6302;42.624;23.334;2023-06-10T14:44:44;4.10;;;3.67;;
12474;SDS011;6302;42.624;23.334;2023-06-10T14:47:11;4.20;;;3.80;;
12474;SDS011;6302;42.624;23.334;2023-06-10T14:49:38;4.57;;;4.10;;
12474;SDS011;6302;42.624;23.334;2023-06-10T14:52:07;5.75;;;4.00;;
12474;SDS011;6302;42.624;23.334;2023-06-10T14:54:34;4.15;;;3.55;;